createdAt,value
2023-05-17T00:05:31.874Z,3.3
2023-05-17T00:20:41.839Z,3.6
2023-05-17T00:35:51.934Z,3.1
2023-05-17T00:51:02.182Z,3.4
2023-05-17T01:06:12.119Z,4.5
2023-05-17T01:21:22.350Z,4
2023-05-17T01:36:32.210Z,4.4
2023-05-17T01:51:42.321Z,5.5
2023-05-17T02:06:52.480Z,5.1
2023-05-17T02:22:02.705Z,4.9
2023-05-17T02:37:13.333Z,5.3
2023-05-17T02:52:23.688Z,4.9
2023-05-17T03:07:33.838Z,5.5
2023-05-17T03:22:44.086Z,5.5
2023-05-17T03:37:54.263Z,5.1
2023-05-17T03:53:04.309Z,5.3
2023-05-17T04:08:15.839Z,4.9
2023-05-17T04:23:25.529Z,3.6
2023-05-17T04:38:36.398Z,4.7
2023-05-17T04:57:32.871Z,5
2023-05-17T05:12:45.905Z,4.8
2023-05-17T05:27:55.579Z,4.4
2023-05-17T05:43:05.767Z,3.9
2023-05-17T05:58:15.660Z,3.2
2023-05-17T06:13:26.123Z,3.5
2023-05-17T06:28:38.286Z,2.9
2023-05-17T06:43:49.240Z,2.2
2023-05-17T06:58:59.998Z,2.7
2023-05-17T07:14:10.152Z,2.5
2023-05-17T07:29:20.588Z,3.3
2023-05-17T07:44:31.078Z,2.6
2023-05-17T07:59:41.410Z,3
2023-05-17T08:14:51.760Z,2.9
2023-05-17T08:30:01.998Z,3.3
2023-05-17T08:45:16.788Z,2.9
2023-05-17T09:00:26.875Z,2.7
2023-05-17T09:15:37.968Z,2.6
2023-05-17T09:30:49.738Z,2.7
2023-05-17T09:46:00.251Z,2.5
2023-05-17T10:01:13.667Z,2.8
2023-05-17T10:16:23.390Z,2.6
2023-05-17T10:31:34.164Z,3
2023-05-17T10:46:43.989Z,2.7
2023-05-17T11:01:54.138Z,3.4
2023-05-17T11:17:04.128Z,4.3
2023-05-17T11:32:14.065Z,3.1
2023-05-17T11:47:23.939Z,2.6
2023-05-17T12:02:34.511Z,2.5
2023-05-17T12:17:45.493Z,2.5
2023-05-17T12:32:59.283Z,2.3
2023-05-17T12:48:09.320Z,2.9
2023-05-17T13:03:21.031Z,2.3
2023-05-17T13:18:31.381Z,2.6
2023-05-17T13:33:43.131Z,2
2023-05-17T13:48:53.562Z,3.1
2023-05-17T14:04:05.838Z,2.8
2023-05-17T14:19:17.105Z,2.6
2023-05-17T14:34:26.964Z,2.3
2023-05-17T14:49:38.697Z,3.1
2023-05-17T15:04:49.355Z,2.6
2023-05-17T15:19:59.595Z,3.4
2023-05-17T15:35:10.743Z,2.1
2023-05-17T15:50:21.221Z,2.6
2023-05-17T16:05:31.418Z,2.8
2023-05-17T16:20:41.127Z,2.7
2023-05-17T16:35:51.976Z,2.6
2023-05-17T16:51:01.949Z,2.9
2023-05-17T17:06:10.890Z,2.8
2023-05-17T17:21:19.820Z,2.8
2023-05-17T17:36:28.994Z,2.3
2023-05-17T17:51:38.661Z,2.7
2023-05-17T18:06:48.105Z,2.4
2023-05-17T18:21:57.952Z,3.2
2023-05-17T18:37:07.430Z,2.8
2023-05-17T18:52:17.066Z,2.7
2023-05-17T19:07:26.299Z,3.4
2023-05-17T19:22:38.262Z,3.1
2023-05-17T19:37:48.185Z,2.9
2023-05-17T19:52:57.887Z,4.1
2023-05-17T20:08:07.601Z,3.5
2023-05-17T20:23:17.462Z,3.3
2023-05-17T20:38:28.334Z,3.2
2023-05-17T20:53:38.708Z,3.8
2023-05-17T21:08:48.410Z,3.4
2023-05-17T21:23:57.878Z,3
2023-05-17T21:39:07.457Z,3.5
2023-05-17T21:54:16.685Z,3.4
2023-05-17T22:09:26.032Z,3.8
2023-05-17T22:24:36.651Z,3.8
2023-05-17T22:39:46.719Z,3.7
2023-05-17T22:54:56.505Z,3.2
2023-05-17T23:10:06.650Z,3.6
2023-05-17T23:25:16.253Z,3.1
2023-05-17T23:40:25.640Z,3.7
2023-05-17T23:55:35.244Z,3.5
